Time;durP1;ratioP1;P1;durP2;ratioP2;P2;SDS_P1;SDS_P2;PMS_P1;PMS_P2;Temp;Humidity;BMP_temperature;BMP_pressure;BME280_temperature;BME280_humidity;BME280_pressure;Samples;Min_cycle;Max_cycle;Signal;HPM_P1;HPM_P2
2021/12/31 00:00:26;;;;;;;9.20;2.65;;;13.00;80.80;;;;;;5054322;28;20041;-75
2021/12/31 00:02:52;;;;;;;10.93;2.25;;;13.00;80.70;;;;;;5031532;28;20075;-75
2021/12/31 00:05:18;;;;;;;12.65;3.28;;;13.00;80.60;;;;;;5019887;28;20069;-76
2021/12/31 00:07:45;;;;;;;15.82;3.55;;;13.00;80.60;;;;;;5053711;28;20044;-76
2021/12/31 00:10:12;;;;;;;11.63;2.70;;;13.00;80.60;;;;;;5035995;28;20500;-76
2021/12/31 00:12:40;;;;;;;11.90;3.28;;;13.00;80.60;;;;;;5054554;28;20045;-75
2021/12/31 00:15:06;;;;;;;12.43;5.00;;;13.00;80.50;;;;;;5054743;28;20047;-76
2021/12/31 00:17:32;;;;;;;17.70;9.55;;;13.00;80.40;;;;;;5054030;28;20033;-76
2021/12/31 00:20:08;;;;;;;20.52;9.70;;;13.00;80.40;;;;;;5054628;28;20051;-76
2021/12/31 00:25:19;;;;;;;16.52;8.82;;;13.00;80.30;;;;;;5036268;28;20195;-76
2021/12/31 00:27:44;;;;;;;18.63;7.75;;;13.00;80.20;;;;;;5035952;28;20099;-76
2021/12/31 00:30:11;;;;;;;11.95;5.43;;;13.00;80.20;;;;;;5054034;28;20095;-76
2021/12/31 00:32:37;;;;;;;11.32;5.10;;;13.00;80.20;;;;;;5053183;28;20131;-76
2021/12/31 00:35:04;;;;;;;10.90;3.78;;;13.00;80.20;;;;;;5036368;28;20052;-75
2021/12/31 00:37:32;;;;;;;10.55;3.35;;;13.00;80.20;;;;;;5052810;28;20388;-76
2021/12/31 00:39:59;;;;;;;11.82;3.40;;;13.00;80.20;;;;;;5054196;28;20488;-76
2021/12/31 00:42:24;;;;;;;14.15;3.47;;;13.00;80.10;;;;;;5035621;28;20424;-76
2021/12/31 00:44:50;;;;;;;14.02;2.92;;;13.00;80.10;;;;;;5054519;28;20135;-76
2021/12/31 00:47:16;;;;;;;10.82;3.65;;;13.00;80.00;;;;;;5053127;28;20045;-76
2021/12/31 00:49:42;;;;;;;10.77;3.40;;;13.00;80.00;;;;;;5054142;28;20267;-76
2021/12/31 00:52:08;;;;;;;14.32;3.17;;;13.00;80.00;;;;;;5053422;28;20048;-76
2021/12/31 00:54:34;;;;;;;10.50;2.90;;;13.00;80.10;;;;;;5053267;28;20472;-76
2021/12/31 00:57:03;;;;;;;16.63;4.07;;;13.00;80.00;;;;;;5053308;28;20099;-76
2021/12/31 00:59:33;;;;;;;11.35;2.95;;;13.00;80.00;;;;;;5035798;28;20045;-76
2021/12/31 01:02:00;;;;;;;12.20;3.40;;;13.00;80.00;;;;;;5036013;28;20476;-76
2021/12/31 01:04:26;;;;;;;19.42;3.30;;;13.00;80.00;;;;;;5052913;28;20078;-76
2021/12/31 01:06:52;;;;;;;11.57;3.22;;;13.00;79.90;;;;;;5035824;28;20033;-76
2021/12/31 01:09:17;;;;;;;8.73;3.15;;;13.00;79.90;;;;;;5036160;28;20414;-76
2021/12/31 01:11:47;;;;;;;10.40;3.25;;;13.00;79.80;;;;;;5035584;28;20499;-76
2021/12/31 01:14:26;;;;;;;12.73;2.75;;;13.00;79.70;;;;;;5034662;28;20499;-76
2021/12/31 01:16:57;;;;;;;12.98;2.67;;;13.00;79.60;;;;;;5053306;28;20518;-76
2021/12/31 01:21:51;;;;;;;11.98;3.30;;;12.90;79.50;;;;;;5053442;28;20506;-76
2021/12/31 01:24:18;;;;;;;11.23;3.00;;;12.90;79.40;;;;;;5053018;28;20045;-76
2021/12/31 01:26:44;;;;;;;12.85;3.25;;;12.90;79.50;;;;;;5052869;28;20115;-76
2021/12/31 01:29:10;;;;;;;11.05;2.55;;;12.90;79.40;;;;;;5035603;28;20060;-76
2021/12/31 01:31:35;;;;;;;10.25;2.70;;;12.90;79.40;;;;;;5052980;28;20041;-76
2021/12/31 01:34:01;;;;;;;11.80;3.05;;;12.90;79.40;;;;;;5052927;28;20055;-76
2021/12/31 01:36:27;;;;;;;12.95;2.45;;;12.80;79.30;;;;;;5053171;28;20392;-76
2021/12/31 01:38:53;;;;;;;13.23;3.22;;;12.80;79.30;;;;;;5053100;28;20415;-75
2021/12/31 01:41:20;;;;;;;12.10;2.70;;;12.80;79.30;;;;;;5035197;28;20063;-75
2021/12/31 01:43:46;;;;;;;11.82;3.30;;;12.80;79.30;;;;;;5052690;28;20472;-76
2021/12/31 01:46:12;;;;;;;8.30;2.45;;;12.70;79.30;;;;;;5035103;28;20048;-76
2021/12/31 01:49:00;;;;;;;15.18;2.90;;;12.70;79.30;;;;;;5053130;28;20044;-76
2021/12/31 01:51:26;;;;;;;14.57;3.35;;;12.70;79.40;;;;;;5035221;28;20476;-76
2021/12/31 01:53:52;;;;;;;11.85;3.15;;;12.60;79.40;;;;;;5052496;28;20044;-76
2021/12/31 01:56:20;;;;;;;10.10;2.90;;;12.60;79.50;;;;;;5052934;28;20052;-75
2021/12/31 01:58:50;;;;;;;9.02;2.50;;;12.70;79.70;;;;;;5052895;28;20124;-75
2021/12/31 02:01:16;;;;;;;12.98;2.85;;;12.70;79.80;;;;;;5035473;28;20060;-76
2021/12/31 02:03:41;;;;;;;8.00;2.65;;;12.70;79.90;;;;;;5052290;28;20045;-76
2021/12/31 02:06:07;;;;;;;9.80;3.20;;;12.70;80.00;;;;;;5052725;28;20506;-76
2021/12/31 02:08:33;;;;;;;9.95;3.03;;;12.70;80.00;;;;;;5017984;28;20049;-76
2021/12/31 02:10:58;;;;;;;10.93;3.05;;;12.70;80.10;;;;;;5035319;28;20052;-75
2021/12/31 02:13:25;;;;;;;13.77;3.38;;;12.70;80.20;;;;;;5053008;28;20480;-75
2021/12/31 02:15:52;;;;;;;7.25;2.55;;;12.70;80.30;;;;;;5052622;28;20048;-74
2021/12/31 02:18:18;;;;;;;11.30;2.45;;;12.70;80.30;;;;;;5052418;28;20037;-75
2021/12/31 02:20:46;;;;;;;5.97;2.85;;;12.70;80.40;;;;;;5034679;28;20063;-75
2021/12/31 02:23:23;;;;;;;9.73;3.42;;;12.70;80.50;;;;;;5052511;28;20087;-76
2021/12/31 02:25:50;;;;;;;9.23;3.05;;;12.80;80.70;;;;;;5052682;28;20456;-76
2021/12/31 02:28:16;;;;;;;8.13;2.47;;;12.80;80.80;;;;;;5052532;28;20044;-76
2021/12/31 02:30:42;;;;;;;9.88;3.25;;;12.80;80.80;;;;;;5052679;28;20044;-76
2021/12/31 02:33:08;;;;;;;4.72;2.30;;;12.90;80.90;;;;;;5034769;28;20045;-76
2021/12/31 02:35:35;;;;;;;9.45;2.97;;;12.80;80.90;;;;;;5052490;28;20427;-75
2021/12/31 02:38:01;;;;;;;8.75;2.75;;;12.90;80.90;;;;;;5052212;28;20138;-76
2021/12/31 02:40:28;;;;;;;7.97;3.03;;;12.90;80.90;;;;;;5034870;28;20037;-75
2021/12/31 02:42:55;;;;;;;10.10;3.38;;;12.90;80.90;;;;;;5052855;28;20044;-76
2021/12/31 02:45:28;;;;;;;8.63;3.03;;;12.90;80.90;;;;;;5034312;28;20079;-75
2021/12/31 02:47:55;;;;;;;10.00;2.95;;;12.90;80.90;;;;;;5052452;28;20045;-75
2021/12/31 02:50:30;;;;;;;9.85;3.60;;;13.00;81.00;;;;;;5052283;28;20045;-75
2021/12/31 02:52:56;;;;;;;6.35;3.25;;;13.00;80.90;;;;;;5052282;28;20052;-75
2021/12/31 02:55:24;;;;;;;6.18;2.97;;;13.00;80.90;;;;;;5054855;28;20107;-75
2021/12/31 02:57:51;;;;;;;7.85;3.53;;;13.10;81.00;;;;;;5037888;28;20053;-76
2021/12/31 03:00:17;;;;;;;7.00;3.20;;;13.00;80.90;;;;;;5021030;28;20064;-75
2021/12/31 03:02:43;;;;;;;8.30;3.72;;;13.00;80.90;;;;;;5056185;28;20482;-75
2021/12/31 03:05:10;;;;;;;7.10;3.53;;;13.00;80.90;;;;;;5055594;28;20533;-75
2021/12/31 03:07:37;;;;;;;8.05;3.60;;;13.00;80.90;;;;;;5056015;28;20522;-75
2021/12/31 03:10:04;;;;;;;8.93;4.15;;;13.00;80.90;;;;;;5037246;28;20422;-75
2021/12/31 03:12:31;;;;;;;7.70;3.70;;;13.10;81.40;;;;;;5055559;28;20479;-75
2021/12/31 03:14:58;;;;;;;8.55;3.95;;;13.00;80.90;;;;;;5047322;28;20041;-75
2021/12/31 03:17:24;;;;;;;8.13;3.78;;;13.10;81.00;;;;;;5037769;28;20045;-75
2021/12/31 03:19:57;;;;;;;7.95;3.97;;;13.10;81.00;;;;;;5055480;28;20041;-75
2021/12/31 03:22:26;;;;;;;8.07;3.17;;;13.10;81.00;;;;;;5055789;28;20045;-76
2021/12/31 03:24:51;;;;;;;9.57;4.00;;;13.10;81.00;;;;;;5037150;28;20045;-75
2021/12/31 03:27:17;;;;;;;8.98;3.63;;;13.10;80.90;;;;;;5055177;28;20386;-75
2021/12/31 03:29:44;;;;;;;13.10;4.72;;;13.10;80.90;;;;;;5055416;28;20060;-75
2021/12/31 03:32:09;;;;;;;7.82;2.55;;;13.10;80.80;;;;;;5055342;28;20056;-75
2021/12/31 03:34:35;;;;;;;9.13;2.63;;;13.10;80.80;;;;;;5055880;28;20041;-75
2021/12/31 03:37:01;;;;;;;7.72;2.10;;;13.20;80.70;;;;;;5037108;28;20072;-74
2021/12/31 03:39:26;;;;;;;6.38;2.20;;;13.10;80.60;;;;;;5037045;28;20076;-75
2021/12/31 03:41:52;;;;;;;6.55;2.70;;;13.10;80.50;;;;;;5054764;28;20174;-75
2021/12/31 03:44:18;;;;;;;8.27;2.78;;;13.20;80.50;;;;;;5055009;28;20115;-76
2021/12/31 03:46:43;;;;;;;9.65;2.28;;;13.20;80.40;;;;;;5055377;28;20126;-75
2021/12/31 03:49:09;;;;;;;5.95;2.47;;;13.20;80.90;;;;;;5055349;28;20044;-75
2021/12/31 03:51:35;;;;;;;8.68;2.28;;;13.20;80.40;;;;;;5054361;28;20399;-75
2021/12/31 03:54:00;;;;;;;7.75;2.10;;;13.20;80.40;;;;;;5054620;28;20073;-75
2021/12/31 03:56:30;;;;;;;5.50;1.92;;;13.20;80.40;;;;;;5036790;28;20053;-76
2021/12/31 03:58:56;;;;;;;8.35;2.70;;;13.20;80.40;;;;;;5054746;28;20056;-75
2021/12/31 04:01:22;;;;;;;9.07;2.60;;;13.20;80.40;;;;;;5054442;28;20127;-75
2021/12/31 04:03:47;;;;;;;6.43;2.60;;;13.20;80.40;;;;;;5036066;28;20059;-75
2021/12/31 04:06:13;;;;;;;6.20;3.05;;;13.20;80.40;;;;;;5055013;28;20033;-75
2021/12/31 04:08:38;;;;;;;10.60;3.83;;;13.20;80.40;;;;;;5036944;28;20120;-75
2021/12/31 04:11:05;;;;;;;6.47;3.28;;;13.20;80.40;;;;;;5037076;28;20051;-75
2021/12/31 04:13:31;;;;;;;7.63;3.60;;;13.20;80.40;;;;;;5054895;28;20048;-75
2021/12/31 04:15:56;;;;;;;9.18;3.88;;;13.20;80.40;;;;;;5054102;28;20041;-75
2021/12/31 04:18:25;;;;;;;7.13;4.13;;;13.50;80.60;;;;;;5054587;28;20029;-76
2021/12/31 04:20:55;;;;;;;6.10;4.68;;;13.20;80.40;;;;;;5054607;28;20049;-75
2021/12/31 04:23:28;;;;;;;8.65;4.18;;;13.20;80.40;;;;;;5026212;28;20041;-75
2021/12/31 04:25:56;;;;;;;9.98;4.40;;;13.20;80.40;;;;;;5054279;28;20126;-76
2021/12/31 04:28:22;;;;;;;8.02;4.78;;;13.20;80.50;;;;;;5054248;28;20033;-75
2021/12/31 04:30:48;;;;;;;6.43;4.40;;;13.20;80.90;;;;;;5053909;28;20055;-75
2021/12/31 04:33:13;;;;;;;7.90;4.20;;;13.20;80.50;;;;;;5036253;28;20059;-76
2021/12/31 04:35:39;;;;;;;7.60;4.80;;;13.20;80.50;;;;;;5054162;28;20036;-75
2021/12/31 04:38:05;;;;;;;11.10;4.93;;;13.20;80.50;;;;;;5054007;28;20029;-75
2021/12/31 04:40:31;;;;;;;7.85;4.57;;;13.30;80.60;;;;;;5054692;28;20083;-75
2021/12/31 04:42:56;;;;;;;11.73;5.35;;;13.20;80.50;;;;;;5054081;28;20484;-76
2021/12/31 04:45:23;;;;;;;8.27;4.25;;;13.20;80.50;;;;;;5035794;28;20060;-76
2021/12/31 04:47:49;;;;;;;9.20;4.43;;;13.20;80.50;;;;;;5053409;28;20098;-75
2021/12/31 04:50:14;;;;;;;7.80;4.13;;;13.20;80.50;;;;;;5054167;28;20045;-76
2021/12/31 04:52:41;;;;;;;9.23;4.07;;;13.20;80.40;;;;;;5053781;28;20155;-76
2021/12/31 04:55:07;;;;;;;10.00;4.90;;;13.20;80.90;;;;;;5053841;28;20480;-75
2021/12/31 04:57:32;;;;;;;8.65;4.25;;;13.20;80.50;;;;;;5053488;28;20506;-75
2021/12/31 04:59:58;;;;;;;7.13;4.05;;;13.20;80.40;;;;;;5034989;28;20056;-75
2021/12/31 05:02:24;;;;;;;6.93;4.28;;;13.20;80.40;;;;;;5035817;28;20127;-75
2021/12/31 05:04:49;;;;;;;6.85;4.10;;;13.20;80.40;;;;;;5036006;28;20057;-75
2021/12/31 05:07:15;;;;;;;6.13;3.15;;;13.20;80.40;;;;;;5053078;28;20665;-75
2021/12/31 05:09:41;;;;;;;6.53;3.60;;;13.20;80.40;;;;;;5053720;28;20063;-75
2021/12/31 05:12:09;;;;;;;7.15;3.60;;;13.20;80.40;;;;;;5053728;28;20529;-75
2021/12/31 05:14:35;;;;;;;6.50;3.20;;;13.20;80.40;;;;;;5053680;28;20422;-75
2021/12/31 05:17:01;;;;;;;8.75;3.10;;;13.20;80.40;;;;;;5052697;28;20041;-74
2021/12/31 05:19:26;;;;;;;7.50;3.50;;;13.20;80.40;;;;;;5053086;28;20033;-75
2021/12/31 05:21:52;;;;;;;6.72;2.95;;;13.20;80.30;;;;;;5053555;28;20055;-74
2021/12/31 05:24:18;;;;;;;7.75;2.97;;;13.20;80.20;;;;;;5053199;28;20094;-75
2021/12/31 05:26:44;;;;;;;6.25;2.83;;;13.20;80.20;;;;;;5053513;28;20041;-75
2021/12/31 05:29:10;;;;;;;6.43;3.15;;;13.20;80.10;;;;;;5053004;28;20120;-75
2021/12/31 05:31:36;;;;;;;8.55;3.17;;;13.20;80.00;;;;;;5053679;28;20560;-75
2021/12/31 05:34:02;;;;;;;6.60;2.85;;;13.20;79.90;;;;;;5034854;28;20091;-75
2021/12/31 05:36:27;;;;;;;6.13;2.72;;;13.20;79.90;;;;;;5035689;28;20049;-75
2021/12/31 05:38:53;;;;;;;8.27;2.83;;;13.20;79.90;;;;;;5061301;28;20418;-75
2021/12/31 05:41:19;;;;;;;7.20;2.53;;;13.20;79.80;;;;;;5052957;28;20480;-76
2021/12/31 05:44:04;;;;;;;6.90;2.70;;;13.20;79.70;;;;;;5035423;28;20100;-76
2021/12/31 05:46:30;;;;;;;6.80;2.53;;;13.20;79.40;;;;;;5052848;28;20045;-76
2021/12/31 05:48:56;;;;;;;5.25;2.30;;;13.20;79.50;;;;;;5052795;28;20044;-76
2021/12/31 05:51:21;;;;;;;7.38;1.92;;;13.20;79.30;;;;;;5052902;28;20167;-76
2021/12/31 05:53:47;;;;;;;8.40;2.88;;;13.20;79.20;;;;;;5034593;28;20087;-76
2021/12/31 05:56:13;;;;;;;5.22;2.40;;;13.10;79.20;;;;;;5052775;28;20415;-75
2021/12/31 05:58:38;;;;;;;5.47;2.80;;;13.20;79.20;;;;;;5035159;28;20060;-75
2021/12/31 06:01:04;;;;;;;6.93;2.13;;;13.10;79.00;;;;;;5034647;28;20048;-75
2021/12/31 06:03:30;;;;;;;4.80;1.90;;;13.10;79.00;;;;;;5052872;28;20041;-76
2021/12/31 06:05:56;;;;;;;4.80;2.35;;;13.10;79.00;;;;;;5053034;28;20037;-76
2021/12/31 06:08:21;;;;;;;6.68;2.20;;;13.10;79.00;;;;;;5053017;28;20071;-75
2021/12/31 06:10:47;;;;;;;5.40;2.10;;;13.10;79.00;;;;;;5052932;28;20466;-76
2021/12/31 06:13:13;;;;;;;7.40;2.13;;;13.10;79.10;;;;;;5035131;28;20132;-76
2021/12/31 06:15:41;;;;;;;8.45;2.30;;;13.00;79.00;;;;;;5034646;28;20053;-76
2021/12/31 06:18:07;;;;;;;5.40;2.08;;;13.00;79.00;;;;;;5052884;28;20045;-75
2021/12/31 06:20:35;;;;;;;7.25;2.20;;;13.00;79.00;;;;;;5034710;28;20080;-76
2021/12/31 06:23:00;;;;;;;6.50;2.05;;;13.00;79.00;;;;;;5053384;28;20049;-76
2021/12/31 06:25:26;;;;;;;5.88;2.45;;;13.00;79.00;;;;;;5034252;28;20417;-76
2021/12/31 06:27:52;;;;;;;5.35;2.13;;;13.00;79.00;;;;;;5052829;28;20037;-76
2021/12/31 06:30:18;;;;;;;4.30;2.00;;;13.00;78.90;;;;;;5055390;28;20091;-76
2021/12/31 06:32:44;;;;;;;5.53;2.10;;;13.00;78.90;;;;;;5039309;28;20484;-76
2021/12/31 06:35:10;;;;;;;6.07;1.95;;;12.90;78.80;;;;;;5055702;28;20051;-75
2021/12/31 06:37:36;;;;;;;5.93;2.05;;;13.00;78.80;;;;;;5056777;28;20029;-75
2021/12/31 06:40:06;;;;;;;5.03;1.80;;;12.90;78.70;;;;;;5038109;28;20044;-75
2021/12/31 06:42:33;;;;;;;3.90;2.10;;;12.90;78.70;;;;;;5055976;28;20049;-76
2021/12/31 06:44:59;;;;;;;6.32;2.03;;;12.90;78.70;;;;;;5056083;28;20068;-76
2021/12/31 06:47:25;;;;;;;4.75;2.00;;;12.90;78.70;;;;;;5056303;28;20084;-76
2021/12/31 06:49:50;;;;;;;4.90;2.30;;;12.90;78.70;;;;;;5037968;28;20525;-76
2021/12/31 06:52:16;;;;;;;4.40;1.98;;;12.90;78.70;;;;;;5056088;28;20103;-76
2021/12/31 06:54:41;;;;;;;3.92;1.85;;;12.80;78.60;;;;;;5055922;28;20407;-76
2021/12/31 06:57:07;;;;;;;4.93;2.20;;;12.90;78.70;;;;;;5037595;28;20124;-76
2021/12/31 06:59:33;;;;;;;4.90;2.30;;;12.80;78.60;;;;;;5055532;28;20476;-76
2021/12/31 07:01:58;;;;;;;4.97;2.42;;;12.80;78.60;;;;;;5055896;28;20478;-76
2021/12/31 07:04:24;;;;;;;4.43;2.10;;;12.80;78.60;;;;;;5056001;28;20039;-75
2021/12/31 07:06:50;;;;;;;6.20;2.33;;;12.80;78.60;;;;;;5055850;28;20073;-76
2021/12/31 07:09:15;;;;;;;6.03;2.15;;;12.80;78.60;;;;;;5038069;28;20392;-76
2021/12/31 07:11:41;;;;;;;5.80;2.20;;;12.80;78.70;;;;;;5037934;28;20057;-76
2021/12/31 07:14:07;;;;;;;4.20;1.92;;;12.70;78.60;;;;;;5055596;28;20037;-75
2021/12/31 07:16:33;;;;;;;5.30;2.35;;;12.70;78.60;;;;;;5038156;28;20392;-76
2021/12/31 07:18:58;;;;;;;4.95;2.20;;;12.70;78.60;;;;;;5055895;28;20033;-76
2021/12/31 07:21:24;;;;;;;6.55;2.60;;;12.70;78.70;;;;;;5037901;28;20399;-75
2021/12/31 07:23:50;;;;;;;6.82;2.40;;;12.70;78.70;;;;;;5055174;28;20041;-75
2021/12/31 07:26:15;;;;;;;5.07;2.75;;;12.70;78.70;;;;;;5037999;28;20084;-76
2021/12/31 07:28:41;;;;;;;3.78;2.40;;;12.70;78.70;;;;;;5055165;28;20499;-76
2021/12/31 07:31:11;;;;;;;6.88;2.33;;;12.60;78.70;;;;;;5054676;28;20045;-76
2021/12/31 07:33:37;;;;;;;5.47;2.10;;;12.70;78.80;;;;;;5038217;28;20076;-76
2021/12/31 07:36:03;;;;;;;5.80;2.13;;;12.70;78.80;;;;;;5054810;28;20491;-76
2021/12/31 07:38:33;;;;;;;5.25;2.72;;;12.60;78.70;;;;;;5055066;28;20052;-76
2021/12/31 07:40:59;;;;;;;4.53;2.22;;;12.70;79.20;;;;;;5054201;28;20052;-75
2021/12/31 07:43:25;;;;;;;6.13;2.20;;;12.60;78.70;;;;;;5036820;28;20057;-75
2021/12/31 07:45:52;;;;;;;5.93;2.17;;;12.60;78.70;;;;;;5054857;28;20041;-76
2021/12/31 07:48:19;;;;;;;5.68;2.50;;;12.60;78.70;;;;;;5053916;28;20068;-76
2021/12/31 07:50:46;;;;;;;3.22;2.45;;;12.60;78.60;;;;;;5054566;28;20099;-77
2021/12/31 07:53:11;;;;;;;6.88;2.75;;;12.60;78.70;;;;;;5055174;28;20080;-77
2021/12/31 07:55:37;;;;;;;4.88;2.53;;;12.60;78.70;;;;;;5036917;28;20084;-76
2021/12/31 07:58:05;;;;;;;6.55;2.70;;;12.60;78.70;;;;;;5036969;28;20057;-76
2021/12/31 08:00:31;;;;;;;7.88;3.20;;;12.60;78.70;;;;;;5036761;28;20045;-76
2021/12/31 08:02:57;;;;;;;5.75;3.00;;;12.60;78.70;;;;;;5055029;28;20460;-77
2021/12/31 08:05:24;;;;;;;7.13;3.08;;;12.60;78.80;;;;;;5054555;28;20040;-76
2021/12/31 08:07:49;;;;;;;8.00;3.35;;;12.60;78.90;;;;;;5054632;28;20120;-77
2021/12/31 08:10:15;;;;;;;8.80;2.97;;;12.60;78.90;;;;;;5054750;28;20468;-77
2021/12/31 08:12:41;;;;;;;7.68;3.38;;;12.60;78.90;;;;;;5037444;28;20049;-77
2021/12/31 08:15:07;;;;;;;7.00;2.85;;;12.60;78.90;;;;;;5054508;28;20107;-77
2021/12/31 08:17:32;;;;;;;4.75;2.45;;;12.60;78.90;;;;;;5054477;28;20049;-77
2021/12/31 08:19:58;;;;;;;6.55;3.10;;;12.60;78.90;;;;;;5036782;28;20083;-77
2021/12/31 08:22:24;;;;;;;7.40;2.80;;;12.60;78.90;;;;;;5036322;28;20044;-76
2021/12/31 08:24:50;;;;;;;7.88;2.67;;;12.70;79.00;;;;;;5053714;28;20392;-76
2021/12/31 08:27:16;;;;;;;7.15;2.45;;;12.70;78.90;;;;;;5054351;28;20037;-76
2021/12/31 08:29:42;;;;;;;5.10;2.60;;;12.70;78.90;;;;;;5054567;28;20090;-77
2021/12/31 08:32:07;;;;;;;8.02;2.58;;;12.70;78.90;;;;;;5054192;28;20056;-77
2021/12/31 08:34:33;;;;;;;5.70;2.60;;;12.70;78.70;;;;;;5054724;28;20045;-77
2021/12/31 08:36:59;;;;;;;6.30;2.30;;;12.70;78.70;;;;;;5053750;28;20059;-76
2021/12/31 08:39:25;;;;;;;4.30;2.15;;;12.70;78.60;;;;;;5053858;28;20041;-76
2021/12/31 08:41:51;;;;;;;5.82;2.22;;;12.80;78.70;;;;;;5053891;28;20041;-76
2021/12/31 08:44:17;;;;;;;4.70;2.30;;;12.80;78.60;;;;;;5054469;28;20049;-77
2021/12/31 08:46:44;;;;;;;7.30;2.58;;;12.80;78.50;;;;;;5035221;28;20059;-82
2021/12/31 08:49:10;;;;;;;4.72;2.10;;;12.80;78.40;;;;;;5036725;28;20067;-82
2021/12/31 08:51:35;;;;;;;4.35;2.20;;;12.80;78.30;;;;;;5052391;28;20045;-83
2021/12/31 08:54:02;;;;;;;4.95;2.50;;;12.80;78.20;;;;;;5053656;28;20056;-82
2021/12/31 08:56:27;;;;;;;6.18;2.35;;;12.80;78.10;;;;;;5052571;28;20479;-82
2021/12/31 08:58:53;;;;;;;4.32;2.30;;;12.90;78.10;;;;;;5053706;28;20092;-82
2021/12/31 09:01:19;;;;;;;6.13;2.45;;;12.80;77.90;;;;;;5053395;28;20080;-82
2021/12/31 09:03:45;;;;;;;5.13;2.40;;;12.90;77.90;;;;;;5054378;28;20051;-82
2021/12/31 09:06:11;;;;;;;5.15;2.40;;;12.90;77.90;;;;;;5053293;28;20052;-82
2021/12/31 09:08:37;;;;;;;4.60;2.38;;;12.90;77.90;;;;;;5053968;28;20116;-83
2021/12/31 09:11:04;;;;;;;5.10;2.60;;;12.90;77.70;;;;;;5035894;28;20511;-83
2021/12/31 09:13:31;;;;;;;5.00;2.50;;;12.90;77.70;;;;;;5052824;28;20515;-82
2021/12/31 09:15:57;;;;;;;5.00;2.35;;;12.80;77.60;;;;;;5036334;28;20060;-83
2021/12/31 09:18:23;;;;;;;5.40;2.85;;;12.90;77.60;;;;;;5053437;28;20040;-82
2021/12/31 09:20:49;;;;;;;4.97;2.00;;;13.00;77.70;;;;;;5067197;28;20037;-83
2021/12/31 09:23:15;;;;;;;7.55;2.47;;;12.90;77.60;;;;;;5056200;28;20017;-83
2021/12/31 09:25:41;;;;;;;4.47;2.38;;;12.90;77.60;;;;;;5074422;28;20048;-83
2021/12/31 09:28:29;;;;;;;6.97;2.65;;;13.00;77.70;;;;;;5038048;28;20495;-83
2021/12/31 09:30:55;;;;;;;5.95;2.28;;;13.00;77.50;;;;;;5036249;28;20399;-82
2021/12/31 09:33:20;;;;;;;4.93;2.30;;;13.00;77.70;;;;;;5053012;28;20047;-81
2021/12/31 09:35:46;;;;;;;3.45;2.10;;;13.00;77.70;;;;;;5035479;28;20053;-81
2021/12/31 09:38:12;;;;;;;4.75;2.15;;;13.00;77.60;;;;;;5034964;28;20044;-81
2021/12/31 09:40:38;;;;;;;8.38;2.47;;;13.00;77.50;;;;;;5053623;28;20029;-82
2021/12/31 09:43:08;;;;;;;6.55;2.75;;;13.00;77.40;;;;;;5035061;28;20084;-82
2021/12/31 09:45:41;;;;;;;2.38;1.83;;;13.00;77.30;;;;;;5035707;28;20044;-83
2021/12/31 09:48:11;;;;;;;6.20;2.47;;;13.10;77.30;;;;;;5046203;28;20041;-83
2021/12/31 09:50:40;;;;;;;5.82;2.25;;;13.10;77.20;;;;;;5050956;28;20036;-81
2021/12/31 09:53:07;;;;;;;6.40;2.22;;;13.20;77.20;;;;;;5052755;28;20064;-82
2021/12/31 09:55:45;;;;;;;6.05;2.25;;;13.10;77.00;;;;;;5052688;28;20048;-82
2021/12/31 09:58:12;;;;;;;6.13;2.55;;;13.10;76.90;;;;;;5062928;28;20123;-82
2021/12/31 10:00:41;;;;;;;8.13;2.92;;;13.10;77.00;;;;;;5054824;28;20135;-82
2021/12/31 10:03:14;;;;;;;4.43;2.78;;;13.20;77.10;;;;;;5056287;28;20040;-82
2021/12/31 10:05:42;;;;;;;6.22;2.33;;;13.10;77.10;;;;;;5077257;28;20049;-81
2021/12/31 10:08:20;;;;;;;4.07;2.20;;;13.10;77.10;;;;;;5075439;28;20071;-81
2021/12/31 10:11:06;;;;;;;4.90;2.30;;;13.10;77.00;;;;;;5077062;28;20040;-80
2021/12/31 10:13:32;;;;;;;5.32;2.60;;;13.20;76.90;;;;;;4990546;28;20535;-81
2021/12/31 10:15:58;;;;;;;5.60;2.50;;;13.10;77.00;;;;;;4995404;28;20604;-81
2021/12/31 10:18:35;;;;;;;4.32;2.80;;;13.10;77.00;;;;;;4995455;28;20060;-81
2021/12/31 10:21:02;;;;;;;6.25;3.28;;;13.20;76.90;;;;;;4995410;28;20042;-82
2021/12/31 10:23:28;;;;;;;5.78;3.10;;;13.20;77.00;;;;;;4994479;28;20113;-81
2021/12/31 10:26:14;;;;;;;6.95;3.10;;;13.20;76.90;;;;;;4995710;28;20057;-81
2021/12/31 10:28:57;;;;;;;6.13;3.10;;;13.20;76.70;;;;;;4994557;28;20053;-80
2021/12/31 10:31:24;;;;;;;6.63;3.35;;;13.20;76.80;;;;;;4995502;28;20096;-80
2021/12/31 10:33:51;;;;;;;5.20;2.67;;;13.20;76.90;;;;;;4978024;28;20054;-80
2021/12/31 10:36:45;;;;;;;6.50;2.60;;;13.20;76.90;;;;;;4978402;28;20072;-80
2021/12/31 10:39:25;;;;;;;6.95;3.55;;;13.20;76.70;;;;;;4940266;28;20061;-80
2021/12/31 10:42:11;;;;;;;7.43;3.03;;;13.30;77.00;;;;;;4940578;29;20062;-80
2021/12/31 10:44:49;;;;;;;6.00;3.13;;;13.20;77.00;;;;;;4955601;28;20043;-81
2021/12/31 10:47:16;;;;;;;8.30;2.67;;;13.20;77.20;;;;;;4955401;28;20054;-80
2021/12/31 10:50:13;;;;;;;9.77;3.20;;;13.20;77.20;;;;;;4962831;28;20148;-80
2021/12/31 10:52:53;;;;;;;7.15;3.13;;;13.20;77.30;;;;;;4958822;28;20133;-81
2021/12/31 10:57:55;;;;;;;7.57;3.28;;;13.20;77.70;;;;;;4973173;28;20059;-81
2021/12/31 11:00:21;;;;;;;6.65;2.95;;;13.10;77.80;;;;;;4956195;28;20093;-81
2021/12/31 11:02:48;;;;;;;5.40;3.47;;;13.10;78.00;;;;;;4956400;28;20067;-81
2021/12/31 11:05:15;;;;;;;9.48;3.83;;;13.10;78.10;;;;;;4974141;28;20193;-81
2021/12/31 11:07:42;;;;;;;7.53;3.10;;;13.10;78.20;;;;;;4973474;28;20094;-81
2021/12/31 11:10:09;;;;;;;12.43;3.70;;;13.10;78.40;;;;;;4963895;28;20054;-82
2021/12/31 11:12:35;;;;;;;4.85;3.13;;;13.10;78.40;;;;;;4957260;28;20055;-81
2021/12/31 11:15:03;;;;;;;6.65;3.05;;;13.10;78.50;;;;;;4960572;28;20058;-80
2021/12/31 11:17:29;;;;;;;8.52;3.60;;;13.10;78.70;;;;;;4988366;28;20062;-81
2021/12/31 11:19:54;;;;;;;5.32;2.75;;;13.10;78.70;;;;;;4992621;28;20324;-80
2021/12/31 11:22:28;;;;;;;5.63;2.75;;;13.10;78.80;;;;;;4958202;28;20386;-81
2021/12/31 11:25:13;;;;;;;5.57;3.13;;;13.00;78.80;;;;;;4956457;28;20133;-82
2021/12/31 11:27:45;;;;;;;10.85;2.88;;;13.00;78.90;;;;;;4972611;28;20509;-81
2021/12/31 11:30:37;;;;;;;8.00;3.10;;;13.00;79.00;;;;;;5050381;28;20851;-81
2021/12/31 11:33:14;;;;;;;6.65;3.00;;;13.00;79.00;;;;;;5071258;28;20066;-81
2021/12/31 11:36:00;;;;;;;5.28;2.83;;;13.00;79.10;;;;;;5071018;28;20103;-81
2021/12/31 11:38:25;;;;;;;6.32;3.33;;;13.00;79.20;;;;;;5053296;28;20044;-81
2021/12/31 11:41:04;;;;;;;7.43;4.68;;;13.00;79.30;;;;;;5071023;28;20380;-81
2021/12/31 11:43:31;;;;;;;6.07;3.67;;;12.90;79.30;;;;;;5071391;28;20048;-81
2021/12/31 11:46:12;;;;;;;10.55;5.53;;;12.90;79.40;;;;;;5071066;28;20060;-81
2021/12/31 11:48:50;;;;;;;10.40;5.72;;;12.90;79.40;;;;;;5069758;28;20089;-81
2021/12/31 11:51:21;;;;;;;11.32;5.57;;;12.90;79.50;;;;;;5052293;28;20037;-80
2021/12/31 11:53:55;;;;;;;11.65;6.32;;;12.90;79.50;;;;;;5054506;28;20043;-81
2021/12/31 11:56:36;;;;;;;10.75;5.65;;;12.90;79.50;;;;;;5070047;28;20052;-79
2021/12/31 11:59:08;;;;;;;8.57;5.28;;;12.90;79.50;;;;;;5042523;28;20044;-87
2021/12/31 12:01:36;;;;;;;11.13;5.15;;;12.90;79.50;;;;;;5052273;28;20052;-85
2021/12/31 12:04:38;;;;;;;8.13;4.45;;;12.90;79.50;;;;;;5071753;28;20056;-85
2021/12/31 12:07:05;;;;;;;7.15;3.90;;;12.90;79.30;;;;;;5052253;28;20051;-87
2021/12/31 12:09:36;;;;;;;5.85;3.90;;;12.80;79.40;;;;;;5069804;28;20036;-85
2021/12/31 12:12:16;;;;;;;7.78;4.72;;;12.90;79.50;;;;;;5051442;28;20044;-85
2021/12/31 12:14:52;;;;;;;8.95;4.43;;;12.90;79.60;;;;;;5055027;28;20084;-85
2021/12/31 12:17:40;;;;;;;10.63;4.40;;;12.90;80.10;;;;;;5074260;28;20052;-87
2021/12/31 12:20:11;;;;;;;7.10;4.38;;;12.80;79.70;;;;;;5048076;28;20040;-87
2021/12/31 12:22:40;;;;;;;8.10;3.72;;;12.80;79.90;;;;;;5056972;28;20122;-86
2021/12/31 12:25:14;;;;;;;11.13;5.13;;;12.80;80.00;;;;;;5056089;28;20407;-87
2021/12/31 12:27:40;;;;;;;;;;;12.80;80.10;;;;;;5056136;28;20045;-86
2021/12/31 12:30:09;;;;;;;7.38;4.35;;;12.80;79.90;;;;;;5055658;28;19920;-85
2021/12/31 12:32:50;;;;;;;9.50;4.60;;;12.70;80.20;;;;;;5056498;28;20079;-85
2021/12/31 12:35:25;;;;;;;11.57;4.70;;;12.70;80.30;;;;;;5055930;28;20056;-86
2021/12/31 12:38:05;;;;;;;9.85;5.75;;;12.70;80.50;;;;;;5074394;28;20476;-86
2021/12/31 12:40:38;;;;;;;21.55;15.63;;;12.70;80.60;;;;;;5055566;28;20075;-84
2021/12/31 12:43:21;;;;;;;19.48;16.20;;;12.70;80.70;;;;;;5072365;28;20040;-87
2021/12/31 12:45:57;;;;;;;60.83;54.63;;;12.70;80.80;;;;;;5054469;28;20044;-86
2021/12/31 12:48:34;;;;;;;16.20;11.10;;;12.60;80.90;;;;;;5058721;28;20048;-86
2021/12/31 12:51:01;;;;;;;10.13;7.55;;;12.60;81.00;;;;;;5052233;28;20049;-85
2021/12/31 12:53:28;;;;;;;9.90;7.55;;;12.60;81.10;;;;;;5067296;28;20047;-86
2021/12/31 12:56:05;;;;;;;9.07;6.00;;;12.60;81.20;;;;;;5055060;28;20048;-84
2021/12/31 12:58:30;;;;;;;8.80;5.82;;;12.60;81.20;;;;;;5071968;28;20045;-78